Aviation Digital Data Service (ADDS)

Output produced by METARs form (1258 UTC 26 March 2019)
found at http://www.aviationweather.gov/metar/data/
 
TAF TBPB 261100Z 2612/2712 09018KT 9999 SCT018 
     PROB30 
     TEMPO 2706/2712 SHRA BKN015 SCT038